createdAt,value
2023-02-11T00:00:18.923Z,32.68
2023-02-11T00:02:47.831Z,32.82
2023-02-11T00:05:15.617Z,32.51
2023-02-11T00:07:43.555Z,32.61
2023-02-11T00:10:10.017Z,32.51
2023-02-11T00:12:37.014Z,32.72
2023-02-11T00:15:03.980Z,32.57
2023-02-11T00:17:30.439Z,32.99
2023-02-11T00:19:57.119Z,33.08
2023-02-11T00:22:23.656Z,32.94
2023-02-11T00:24:50.248Z,33.01
2023-02-11T00:27:16.839Z,32.52
2023-02-11T00:29:44.622Z,32.71
2023-02-11T00:32:11.129Z,32.46
2023-02-11T00:34:38.183Z,32.60
2023-02-11T00:37:05.541Z,32.90
2023-02-11T00:39:32.702Z,32.79
2023-02-11T00:41:59.250Z,32.49
2023-02-11T00:44:26.954Z,32.51
2023-02-11T00:46:53.427Z,32.89
2023-02-11T00:49:20.038Z,32.41
2023-02-11T00:51:48.598Z,32.37
2023-02-11T00:54:15.194Z,32.91
2023-02-11T00:56:41.766Z,32.34
2023-02-11T00:59:09.158Z,32.24
2023-02-11T01:01:35.878Z,32.31
2023-02-11T01:04:02.392Z,32.32
2023-02-11T01:06:28.841Z,32.29
2023-02-11T01:08:56.574Z,32.14
2023-02-11T01:11:23.035Z,32.28
2023-02-11T01:13:49.741Z,32.14
2023-02-11T01:16:16.693Z,32.37
2023-02-11T01:18:45.076Z,32.66
2023-02-11T01:21:11.668Z,32.04
2023-02-11T01:23:38.299Z,32.55
2023-02-11T01:26:04.927Z,32.55
2023-02-11T01:28:31.738Z,32.46
2023-02-11T01:31:00.670Z,32.03
2023-02-11T01:33:27.283Z,32.04
2023-02-11T01:35:53.864Z,32.42
2023-02-11T01:38:21.878Z,32.05
2023-02-11T01:40:52.931Z,31.99
2023-02-11T01:43:19.807Z,32.11
2023-02-11T01:45:52.957Z,31.89
2023-02-11T01:48:19.538Z,31.83
2023-02-11T01:50:48.176Z,32.06
2023-02-11T01:53:33.263Z,31.89
2023-02-11T01:56:18.501Z,31.96
2023-02-11T01:58:45.658Z,31.83
2023-02-11T02:01:13.260Z,32.11
2023-02-11T02:03:40.186Z,31.84
2023-02-11T02:06:14.830Z,31.88
2023-02-11T02:08:47.310Z,32.17
2023-02-11T02:11:13.843Z,32.26
2023-02-11T02:13:41.584Z,31.87
2023-02-11T02:16:10.936Z,32.17
2023-02-11T02:18:56.213Z,32.00
2023-02-11T02:21:30.792Z,32.16
2023-02-11T02:24:03.567Z,31.76
2023-02-11T02:26:47.042Z,31.85
2023-02-11T02:29:22.407Z,31.77
2023-02-11T02:31:49.151Z,32.06
2023-02-11T02:34:17.212Z,32.13
2023-02-11T02:36:44.797Z,31.99
2023-02-11T02:39:21.104Z,31.88
2023-02-11T02:41:48.489Z,31.60
2023-02-11T02:44:14.955Z,31.63
2023-02-11T02:46:41.693Z,32.04
2023-02-11T02:49:12.570Z,31.64
2023-02-11T02:51:58.218Z,31.86
2023-02-11T02:54:43.861Z,32.00
2023-02-11T02:57:27.846Z,31.98
2023-02-11T02:59:59.775Z,31.85
2023-02-11T03:02:31.742Z,31.51
2023-02-11T03:05:18.626Z,31.77
2023-02-11T03:07:49.038Z,31.94
2023-02-11T03:10:17.640Z,31.68
2023-02-11T03:12:44.167Z,31.68
2023-02-11T03:15:11.421Z,31.98
2023-02-11T03:17:38.871Z,31.72
2023-02-11T03:20:05.549Z,31.62
2023-02-11T03:22:36.621Z,31.85
2023-02-11T03:25:04.352Z,31.75
2023-02-11T03:27:44.205Z,31.81
2023-02-11T03:30:16.232Z,31.61
2023-02-11T03:32:45.998Z,31.67
2023-02-11T03:35:12.399Z,31.69
2023-02-11T03:37:58.096Z,31.62
2023-02-11T03:40:37.037Z,31.79
2023-02-11T03:43:07.055Z,31.61
2023-02-11T03:45:33.516Z,31.81
2023-02-11T03:48:00.903Z,31.66
2023-02-11T03:50:27.420Z,31.65
2023-02-11T03:52:53.956Z,31.44
2023-02-11T03:55:20.549Z,31.54
2023-02-11T03:57:47.344Z,31.75
2023-02-11T04:00:14.055Z,31.43
2023-02-11T04:02:40.773Z,31.54
2023-02-11T04:05:07.855Z,31.71
2023-02-11T04:07:34.456Z,31.68
2023-02-11T04:10:00.896Z,31.22
2023-02-11T04:12:27.393Z,31.48
2023-02-11T04:14:53.863Z,31.65
2023-02-11T04:17:20.326Z,31.45
2023-02-11T04:19:46.892Z,31.61
2023-02-11T04:22:13.569Z,31.58
2023-02-11T04:24:40.218Z,31.38
2023-02-11T04:27:07.124Z,31.36
2023-02-11T04:29:33.634Z,31.47
2023-02-11T04:32:00.374Z,31.64
2023-02-11T04:34:26.997Z,31.46
2023-02-11T04:36:53.529Z,31.39
2023-02-11T04:39:19.947Z,31.41
2023-02-11T04:41:46.504Z,29.46
2023-02-11T04:44:13.436Z,25.71
2023-02-11T04:46:39.925Z,26.95
2023-02-11T04:49:06.436Z,28.09
2023-02-11T04:51:33.047Z,29.41
2023-02-11T04:53:59.489Z,29.69
2023-02-11T04:56:26.153Z,29.85
2023-02-11T04:58:52.583Z,29.77
2023-02-11T05:01:19.151Z,30.24
2023-02-11T05:03:45.715Z,30.29
2023-02-11T05:06:12.519Z,30.28
2023-02-11T05:08:39.166Z,30.25
2023-02-11T05:11:05.923Z,30.09
2023-02-11T05:13:32.610Z,30.11
2023-02-11T05:15:59.176Z,30.28
2023-02-11T05:18:25.676Z,30.42
2023-02-11T05:20:52.402Z,30.47
2023-02-11T05:23:18.845Z,30.20
2023-02-11T05:25:45.779Z,30.55
2023-02-11T05:28:14.495Z,30.57
2023-02-11T05:30:41.251Z,30.43
2023-02-11T05:33:08.046Z,30.33
2023-02-11T05:35:34.805Z,30.70
2023-02-11T05:38:01.391Z,30.57
2023-02-11T05:40:28.726Z,30.71
2023-02-11T05:42:55.256Z,30.56
2023-02-11T05:45:21.968Z,30.46
2023-02-11T05:47:48.413Z,30.55
2023-02-11T05:50:15.282Z,30.57
2023-02-11T05:52:41.880Z,30.49
2023-02-11T05:55:09.788Z,30.57
2023-02-11T05:57:36.532Z,30.54
2023-02-11T06:00:04.224Z,30.72
2023-02-11T06:02:39.357Z,30.76
2023-02-11T06:05:06.070Z,30.97
2023-02-11T06:07:32.513Z,31.02
2023-02-11T06:09:59.596Z,31.10
2023-02-11T06:12:26.676Z,31.22
2023-02-11T06:14:53.328Z,31.15
2023-02-11T06:17:19.910Z,31.27
2023-02-11T06:19:46.374Z,31.37
2023-02-11T06:22:12.961Z,31.01
2023-02-11T06:24:58.941Z,31.18
2023-02-11T06:27:25.915Z,31.41
2023-02-11T06:29:53.101Z,31.39
2023-02-11T06:32:42.261Z,31.45
2023-02-11T06:35:12.094Z,31.51
2023-02-11T06:37:39.630Z,31.36
2023-02-11T06:40:06.302Z,31.61
2023-02-11T06:42:32.784Z,31.25
2023-02-11T06:44:59.296Z,31.70
2023-02-11T06:47:25.976Z,31.26
2023-02-11T06:49:52.643Z,31.53
2023-02-11T06:52:19.089Z,31.38
2023-02-11T06:54:45.590Z,31.56
2023-02-11T06:57:12.611Z,31.62
2023-02-11T06:59:39.613Z,31.75
2023-02-11T07:02:06.176Z,31.42
2023-02-11T07:04:32.696Z,31.47
2023-02-11T07:06:59.328Z,31.74
2023-02-11T07:09:25.821Z,31.41
2023-02-11T07:11:52.503Z,31.63
2023-02-11T07:14:19.514Z,31.88
2023-02-11T07:16:46.043Z,31.83
2023-02-11T07:19:12.933Z,31.69
2023-02-11T07:21:39.370Z,31.86
2023-02-11T07:24:08.896Z,31.52
2023-02-11T07:26:37.268Z,31.64
2023-02-11T07:29:03.869Z,31.94
2023-02-11T07:31:30.839Z,31.48
2023-02-11T07:33:59.135Z,31.90
2023-02-11T07:36:25.936Z,32.11
2023-02-11T07:38:52.407Z,31.75
2023-02-11T07:41:20.731Z,31.66
2023-02-11T07:43:47.260Z,31.62
2023-02-11T07:46:23.923Z,31.65
2023-02-11T07:48:50.524Z,31.72
2023-02-11T07:51:17.733Z,31.77
2023-02-11T07:53:44.581Z,31.95
2023-02-11T07:56:12.009Z,32.23
2023-02-11T07:58:38.498Z,31.73
2023-02-11T08:01:05.963Z,31.71
2023-02-11T08:03:33.054Z,32.15
2023-02-11T08:06:02.896Z,32.26
2023-02-11T08:08:29.371Z,31.94
2023-02-11T08:10:55.784Z,32.06
2023-02-11T08:13:22.273Z,31.93
2023-02-11T08:15:48.994Z,32.33
2023-02-11T08:18:15.986Z,31.93
2023-02-11T08:20:43.845Z,31.92
2023-02-11T08:23:10.447Z,31.97
2023-02-11T08:25:36.909Z,32.37
2023-02-11T08:28:03.389Z,32.18
2023-02-11T08:30:31.309Z,31.98
2023-02-11T08:32:59.008Z,31.97
2023-02-11T08:35:26.090Z,31.85
2023-02-11T08:37:53.066Z,32.23
2023-02-11T08:40:19.809Z,32.38
2023-02-11T08:42:46.331Z,32.59
2023-02-11T08:45:13.533Z,32.25
2023-02-11T08:47:40.139Z,31.92
2023-02-11T08:50:06.774Z,32.92
2023-02-11T08:52:33.285Z,32.35
2023-02-11T08:54:59.814Z,32.79
2023-02-11T08:57:26.335Z,32.82
2023-02-11T08:59:52.789Z,32.84
2023-02-11T09:02:19.475Z,33.07
2023-02-11T09:04:46.010Z,33.61
2023-02-11T09:07:13.154Z,33.97
2023-02-11T09:09:39.836Z,34.21
2023-02-11T09:12:06.313Z,33.92
2023-02-11T09:14:33.265Z,34.32
2023-02-11T09:17:00.893Z,34.25
2023-02-11T09:19:27.495Z,34.44
2023-02-11T09:21:54.264Z,34.54
2023-02-11T09:24:21.407Z,34.26
2023-02-11T09:26:47.941Z,34.77
2023-02-11T09:29:15.101Z,34.97
2023-02-11T09:31:43.603Z,34.43
2023-02-11T09:34:10.992Z,34.68
2023-02-11T09:36:38.670Z,34.71
2023-02-11T09:39:05.874Z,34.51
2023-02-11T09:41:35.215Z,34.95
2023-02-11T09:44:02.935Z,34.95
2023-02-11T09:46:31.642Z,34.71
2023-02-11T09:48:58.173Z,34.79
2023-02-11T09:51:30.392Z,34.70
2023-02-11T09:54:00.322Z,34.38
2023-02-11T09:56:27.621Z,35.20
2023-02-11T09:58:54.210Z,35.04
2023-02-11T10:01:23.560Z,34.73
2023-02-11T10:03:52.853Z,34.94
2023-02-11T10:06:39.700Z,35.04
2023-02-11T10:09:25.093Z,34.85
2023-02-11T10:12:04.480Z,34.91
2023-02-11T10:14:50.304Z,34.93
2023-02-11T10:17:31.826Z,35.36
2023-02-11T10:20:07.635Z,34.72
2023-02-11T10:22:36.172Z,35.10
2023-02-11T10:25:08.435Z,34.94
2023-02-11T10:27:35.443Z,35.74
2023-02-11T10:30:11.548Z,35.06
2023-02-11T10:32:43.256Z,35.65
2023-02-11T10:35:16.068Z,36.12
2023-02-11T10:37:44.545Z,35.79
2023-02-11T10:40:17.743Z,35.44
2023-02-11T10:42:55.757Z,35.64
2023-02-11T10:45:22.592Z,35.68
2023-02-11T10:47:49.081Z,35.39
2023-02-11T10:50:23.038Z,35.26
2023-02-11T10:52:49.772Z,35.04
2023-02-11T10:55:17.462Z,35.49
2023-02-11T10:57:50.662Z,35.58
2023-02-11T11:00:23.095Z,35.36
2023-02-11T11:02:53.275Z,35.52
2023-02-11T11:05:20.454Z,35.80
2023-02-11T11:07:58.611Z,35.77
2023-02-11T11:10:26.705Z,36.24
2023-02-11T11:12:55.647Z,36.16
2023-02-11T11:15:23.459Z,35.97
2023-02-11T11:17:50.411Z,35.82
2023-02-11T11:20:30.382Z,35.91
2023-02-11T11:23:11.106Z,35.60
2023-02-11T11:25:38.263Z,35.53
2023-02-11T11:28:04.805Z,35.14
2023-02-11T11:30:33.403Z,35.01
2023-02-11T11:32:59.952Z,35.08
2023-02-11T11:35:30.376Z,35.75
2023-02-11T11:38:00.568Z,34.75
2023-02-11T11:40:30.064Z,35.05
2023-02-11T11:43:04.039Z,34.55
2023-02-11T11:45:30.569Z,34.63
2023-02-11T11:48:05.013Z,35.10
2023-02-11T11:50:40.322Z,34.95
2023-02-11T11:53:22.186Z,34.60
2023-02-11T11:55:54.244Z,34.75
2023-02-11T11:58:21.369Z,34.56
2023-02-11T12:00:50.921Z,34.46
2023-02-11T12:03:17.599Z,34.71
2023-02-11T12:05:46.773Z,34.63
2023-02-11T12:08:19.026Z,34.53
2023-02-11T12:10:45.529Z,34.37
2023-02-11T12:13:12.177Z,34.61
2023-02-11T12:15:39.226Z,34.66
2023-02-11T12:18:16.348Z,34.39
2023-02-11T12:20:48.107Z,34.55
2023-02-11T12:23:17.786Z,34.38
2023-02-11T12:25:56.184Z,34.53
2023-02-11T12:28:26.170Z,34.65
2023-02-11T12:30:58.630Z,34.42
2023-02-11T12:33:28.111Z,34.51
2023-02-11T12:35:56.747Z,34.38
2023-02-11T12:38:36.400Z,34.46
2023-02-11T12:41:07.092Z,34.34
2023-02-11T12:43:37.561Z,33.69
2023-02-11T12:46:10.849Z,33.65
2023-02-11T12:48:56.580Z,33.80
2023-02-11T12:51:41.573Z,33.55
2023-02-11T12:54:08.042Z,33.79
2023-02-11T12:56:38.860Z,33.62
2023-02-11T12:59:05.522Z,33.75
2023-02-11T13:01:39.836Z,33.66
2023-02-11T13:04:09.212Z,33.64
2023-02-11T13:06:37.272Z,33.55
2023-02-11T13:09:04.740Z,33.85
2023-02-11T13:11:41.264Z,34.42
2023-02-11T13:14:09.800Z,34.24
2023-02-11T13:16:37.024Z,33.93
2023-02-11T13:19:12.697Z,34.09
2023-02-11T13:21:45.073Z,34.33
2023-02-11T13:24:23.512Z,33.92
2023-02-11T13:27:05.712Z,33.90
2023-02-11T13:29:32.146Z,33.81
2023-02-11T13:32:11.813Z,33.81
2023-02-11T13:34:41.063Z,33.59
2023-02-11T13:37:26.667Z,33.86
2023-02-11T13:39:58.023Z,33.72
2023-02-11T13:42:24.491Z,33.54
2023-02-11T13:44:51.057Z,33.75
2023-02-11T13:47:30.429Z,33.70
2023-02-11T13:49:56.976Z,33.47
2023-02-11T13:52:23.585Z,33.55
2023-02-11T13:54:51.101Z,33.57
2023-02-11T13:57:20.546Z,33.48
2023-02-11T13:59:50.752Z,33.44
2023-02-11T14:02:36.647Z,33.45
2023-02-11T14:05:23.157Z,33.51
2023-02-11T14:08:39.443Z,33.52
2023-02-11T14:11:12.732Z,33.82
2023-02-11T14:13:49.244Z,33.88
2023-02-11T14:16:22.547Z,34.13
2023-02-11T14:18:54.901Z,33.98
2023-02-11T14:21:24.474Z,33.93
2023-02-11T14:23:53.318Z,33.90
2023-02-11T14:26:20.887Z,34.15
2023-02-11T14:29:05.756Z,34.16
2023-02-11T14:31:46.751Z,34.30
2023-02-11T14:34:16.241Z,34.25
2023-02-11T14:36:58.153Z,33.99
2023-02-11T14:39:30.660Z,33.89
2023-02-11T14:41:57.230Z,33.65
2023-02-11T14:44:25.829Z,33.63
2023-02-11T14:46:53.396Z,33.51
2023-02-11T14:49:38.669Z,33.51
2023-02-11T14:52:24.016Z,33.54
2023-02-11T14:54:50.487Z,33.05
2023-02-11T14:57:17.977Z,33.01
2023-02-11T15:00:02.621Z,33.07
2023-02-11T15:02:31.433Z,33.14
2023-02-11T15:05:14.554Z,33.11
2023-02-11T15:07:45.557Z,32.85
2023-02-11T15:10:18.892Z,33.05
2023-02-11T15:12:48.775Z,32.89
2023-02-11T15:15:15.439Z,33.08
2023-02-11T15:17:42.557Z,32.75
2023-02-11T15:20:13.395Z,32.63
2023-02-11T15:22:39.993Z,32.80
2023-02-11T15:25:06.412Z,32.59
2023-02-11T15:27:42.569Z,32.72
2023-02-11T15:30:18.082Z,32.74
2023-02-11T15:32:45.152Z,32.61
2023-02-11T15:35:13.634Z,32.52
2023-02-11T15:37:41.519Z,32.64
2023-02-11T15:40:12.809Z,32.62
2023-02-11T15:42:52.166Z,32.45
2023-02-11T15:45:28.926Z,32.50
2023-02-11T15:47:57.048Z,32.53
2023-02-11T15:50:24.692Z,32.58
2023-02-11T15:52:51.223Z,32.67
2023-02-11T15:55:17.930Z,32.63
2023-02-11T15:57:45.776Z,32.64
2023-02-11T16:00:16.555Z,32.85
2023-02-11T16:02:45.161Z,32.61
2023-02-11T16:05:44.906Z,32.72
2023-02-11T16:08:20.539Z,32.48
2023-02-11T16:10:54.446Z,32.65
2023-02-11T16:13:20.980Z,32.80
2023-02-11T16:15:48.871Z,32.54
2023-02-11T16:18:36.806Z,32.59
2023-02-11T16:21:04.588Z,32.57
2023-02-11T16:23:38.393Z,32.46
2023-02-11T16:26:10.690Z,32.36
2023-02-11T16:28:37.512Z,32.50
2023-02-11T16:31:04.435Z,32.79
2023-02-11T16:33:31.263Z,33.22
2023-02-11T16:35:57.786Z,33.69
2023-02-11T16:38:24.654Z,33.66
2023-02-11T16:40:51.479Z,34.00
2023-02-11T16:43:19.161Z,33.94
2023-02-11T16:45:47.248Z,34.72
2023-02-11T16:48:15.664Z,34.34
2023-02-11T16:50:43.854Z,34.69
2023-02-11T16:53:11.607Z,35.54
2023-02-11T16:55:38.834Z,35.78
2023-02-11T16:58:06.427Z,35.94
2023-02-11T17:00:34.296Z,35.80
2023-02-11T17:03:00.781Z,36.24
2023-02-11T17:05:27.432Z,36.79
2023-02-11T17:07:54.397Z,36.34
2023-02-11T17:10:22.229Z,36.57
2023-02-11T17:12:50.294Z,36.59
2023-02-11T17:15:16.745Z,36.82
2023-02-11T17:17:43.475Z,37.29
2023-02-11T17:20:11.493Z,37.40
2023-02-11T17:22:38.029Z,37.53
2023-02-11T17:25:04.590Z,37.38
2023-02-11T17:27:31.066Z,37.36
2023-02-11T17:29:57.568Z,37.83
2023-02-11T17:32:24.237Z,37.66
2023-02-11T17:34:52.327Z,37.95
2023-02-11T17:37:18.851Z,37.80
2023-02-11T17:39:45.798Z,38.34
2023-02-11T17:42:14.533Z,38.83
2023-02-11T17:44:40.977Z,37.54
2023-02-11T17:47:07.715Z,37.54
2023-02-11T17:49:34.374Z,38.54
2023-02-11T17:52:00.887Z,38.54
2023-02-11T17:54:27.325Z,38.55
2023-02-11T17:56:57.809Z,38.03
2023-02-11T17:59:25.900Z,38.48
2023-02-11T18:01:52.336Z,38.21
2023-02-11T18:04:19.173Z,38.37
2023-02-11T18:06:45.966Z,38.27
2023-02-11T18:09:12.515Z,38.14
2023-02-11T18:11:39.610Z,38.03
2023-02-11T18:14:07.800Z,37.96
2023-02-11T18:16:36.418Z,38.18
2023-02-11T18:19:03.111Z,37.91
2023-02-11T18:21:29.668Z,37.99
2023-02-11T18:23:57.026Z,38.28
2023-02-11T18:26:28.038Z,37.88
2023-02-11T18:28:57.480Z,37.93
2023-02-11T18:31:24.633Z,37.89
2023-02-11T18:33:53.013Z,38.03
2023-02-11T18:36:20.978Z,37.57
2023-02-11T18:38:47.462Z,37.71
2023-02-11T18:41:14.077Z,37.93
2023-02-11T18:43:40.613Z,37.95
2023-02-11T18:46:08.491Z,37.49
2023-02-11T18:48:35.347Z,37.38
2023-02-11T18:51:02.067Z,37.39
2023-02-11T18:53:28.555Z,37.67
2023-02-11T18:55:55.440Z,37.77
2023-02-11T18:58:23.168Z,37.56
2023-02-11T19:00:49.650Z,37.86
2023-02-11T19:03:16.567Z,38.11
2023-02-11T19:05:47.449Z,38.32
2023-02-11T19:08:14.040Z,38.34
2023-02-11T19:10:44.714Z,38.48
2023-02-11T19:13:12.822Z,38.98
2023-02-11T19:15:43.103Z,39.07
2023-02-11T19:18:09.854Z,38.70
2023-02-11T19:20:38.445Z,38.82
2023-02-11T19:23:04.894Z,39.22
2023-02-11T19:25:31.394Z,39.19
2023-02-11T19:27:58.113Z,38.79
2023-02-11T19:30:24.971Z,38.62
2023-02-11T19:32:52.584Z,38.67
2023-02-11T19:35:19.498Z,38.76
2023-02-11T19:37:45.998Z,38.86
2023-02-11T19:40:12.626Z,39.21
2023-02-11T19:42:39.103Z,39.33
2023-02-11T19:45:07.336Z,38.51
2023-02-11T19:47:34.147Z,39.12
2023-02-11T19:50:00.628Z,38.87
2023-02-11T19:52:27.101Z,39.25
2023-02-11T19:54:53.536Z,38.87
2023-02-11T19:57:20.412Z,38.93
2023-02-11T19:59:46.850Z,38.96
2023-02-11T20:02:13.353Z,39.11
2023-02-11T20:04:40.524Z,38.85
2023-02-11T20:07:07.043Z,38.60
2023-02-11T20:09:33.490Z,38.74
2023-02-11T20:12:00.617Z,38.91
2023-02-11T20:14:28.224Z,38.55
2023-02-11T20:16:54.774Z,38.78
2023-02-11T20:19:21.921Z,38.48
2023-02-11T20:21:49.194Z,38.48
2023-02-11T20:24:16.182Z,38.46
2023-02-11T20:26:42.809Z,38.70
2023-02-11T20:29:10.616Z,38.57
2023-02-11T20:31:37.186Z,38.85
2023-02-11T20:34:03.954Z,38.89
2023-02-11T20:36:32.284Z,38.71
2023-02-11T20:38:59.430Z,38.85
2023-02-11T20:41:27.985Z,38.76
2023-02-11T20:43:55.106Z,38.51
2023-02-11T20:46:23.211Z,38.66
2023-02-11T20:48:49.914Z,38.34
2023-02-11T20:51:20.643Z,38.65
2023-02-11T20:53:51.000Z,38.22
2023-02-11T20:56:18.678Z,38.41
2023-02-11T20:58:45.312Z,38.70
2023-02-11T21:01:14.076Z,38.41
2023-02-11T21:03:43.726Z,38.45
2023-02-11T21:06:13.138Z,38.32
2023-02-11T21:08:39.702Z,38.56
2023-02-11T21:11:08.820Z,38.45
2023-02-11T21:13:35.900Z,38.04
2023-02-11T21:16:02.503Z,38.75
2023-02-11T21:18:29.868Z,38.02
2023-02-11T21:20:57.171Z,37.81
2023-02-11T21:23:23.811Z,37.76
2023-02-11T21:25:50.604Z,38.01
2023-02-11T21:28:17.138Z,37.97
2023-02-11T21:30:44.468Z,38.30
2023-02-11T21:33:10.936Z,38.44
2023-02-11T21:35:37.903Z,38.08
2023-02-11T21:38:04.516Z,38.35
2023-02-11T21:40:32.230Z,38.27
2023-02-11T21:42:58.952Z,38.21
2023-02-11T21:45:25.495Z,38.38
2023-02-11T21:47:53.182Z,38.01
2023-02-11T21:50:20.144Z,37.78
2023-02-11T21:52:46.574Z,38.28
2023-02-11T21:55:13.170Z,38.03
2023-02-11T21:57:39.612Z,37.78
2023-02-11T22:00:08.706Z,38.09
2023-02-11T22:02:37.482Z,37.91
2023-02-11T22:05:04.335Z,37.78
2023-02-11T22:07:30.820Z,37.88
2023-02-11T22:09:59.264Z,37.67
2023-02-11T22:12:25.716Z,37.53
2023-02-11T22:14:52.170Z,37.99
2023-02-11T22:17:18.656Z,37.76
2023-02-11T22:19:45.315Z,37.78
2023-02-11T22:22:13.440Z,37.35
2023-02-11T22:24:41.602Z,37.75
2023-02-11T22:27:08.048Z,37.17
2023-02-11T22:29:34.551Z,36.89
2023-02-11T22:32:01.254Z,36.89
2023-02-11T22:34:27.871Z,36.83
2023-02-11T22:36:54.541Z,36.76
2023-02-11T22:39:21.045Z,36.99
2023-02-11T22:41:47.700Z,36.70
2023-02-11T22:44:15.032Z,36.72
2023-02-11T22:46:41.479Z,36.88
2023-02-11T22:49:16.115Z,36.50
2023-02-11T22:51:42.859Z,37.00
2023-02-11T22:54:10.591Z,36.58
2023-02-11T22:56:37.147Z,36.95
2023-02-11T22:59:04.786Z,36.56
2023-02-11T23:01:31.416Z,36.61
2023-02-11T23:03:59.000Z,36.81
2023-02-11T23:06:25.473Z,36.65
2023-02-11T23:08:51.895Z,36.54
2023-02-11T23:11:19.210Z,36.39
2023-02-11T23:13:46.426Z,36.30
2023-02-11T23:16:14.107Z,36.77
2023-02-11T23:18:41.347Z,36.74
2023-02-11T23:21:11.362Z,36.47
2023-02-11T23:23:39.066Z,36.40
2023-02-11T23:26:05.525Z,36.25
2023-02-11T23:28:35.490Z,36.56
2023-02-11T23:31:11.853Z,36.62
2023-02-11T23:33:38.414Z,36.42
2023-02-11T23:36:05.919Z,36.58
2023-02-11T23:38:33.165Z,36.65
2023-02-11T23:41:00.543Z,36.26
2023-02-11T23:43:27.168Z,36.21
2023-02-11T23:45:54.064Z,36.06
2023-02-11T23:48:23.266Z,36.63
2023-02-11T23:50:53.648Z,36.70
2023-02-11T23:53:24.453Z,36.70
2023-02-11T23:55:58.573Z,36.14
2023-02-11T23:58:25.164Z,36.77
